Time;durP1;ratioP1;P1;durP2;ratioP2;P2;SDS_P1;SDS_P2;PMS_P1;PMS_P2;Temp;Humidity;BMP_temperature;BMP_pressure;BME280_temperature;BME280_humidity;BME280_pressure;Samples;Min_cycle;Max_cycle;Signal;HPM_P1;HPM_P2
2021/01/08 00:01:42;;;;;;;13.50;9.82;;;3.70;99.90;;;;;;4127148;28;20049;-68
2021/01/08 00:03:42;;;;;;;;;;;3.70;99.90;;;;;;4136598;28;20035;-68
2021/01/08 00:05:43;;;;;;;12.70;9.43;;;3.70;99.90;;;;;;4126580;28;19913;-68
2021/01/08 00:07:44;;;;;;;11.48;9.38;;;3.70;99.90;;;;;;4136048;28;20392;-68
2021/01/08 00:09:44;;;;;;;11.82;9.63;;;3.80;99.90;;;;;;4127086;28;20041;-68
2021/01/08 00:11:45;;;;;;;14.65;10.07;;;3.80;99.90;;;;;;4126325;28;20496;-68
2021/01/08 00:13:48;;;;;;;11.35;9.52;;;3.80;99.90;;;;;;4140196;28;20046;-68
2021/01/08 00:15:49;;;;;;;12.13;10.40;;;3.80;99.90;;;;;;4124546;28;20042;-68
2021/01/08 00:17:49;;;;;;;12.27;9.88;;;3.80;99.90;;;;;;4131360;28;20031;-68
2021/01/08 00:19:50;;;;;;;13.38;9.25;;;3.80;99.90;;;;;;4125463;28;20054;-68
2021/01/08 00:21:51;;;;;;;10.88;9.07;;;3.80;99.90;;;;;;4128546;28;20037;-68
2021/01/08 00:23:51;;;;;;;9.13;8.13;;;3.80;99.90;;;;;;4108771;28;20097;-68
2021/01/08 00:25:52;;;;;;;10.75;8.30;;;3.80;99.90;;;;;;4108404;28;20492;-68
2021/01/08 00:27:53;;;;;;;9.90;7.38;;;3.80;99.90;;;;;;4128385;28;20039;-68
2021/01/08 00:29:53;;;;;;;8.18;6.90;;;3.80;99.90;;;;;;4108256;28;20137;-68
2021/01/08 00:31:54;;;;;;;8.57;7.03;;;3.80;99.90;;;;;;4130545;28;20192;-68
2021/01/08 00:33:55;;;;;;;8.07;6.63;;;3.80;99.90;;;;;;4124465;28;20499;-68
2021/01/08 00:35:55;;;;;;;8.30;6.97;;;3.80;99.90;;;;;;4127444;28;20782;-68
2021/01/08 00:37:56;;;;;;;7.53;6.38;;;3.80;99.90;;;;;;4130000;28;20046;-68
2021/01/08 00:39:57;;;;;;;7.97;7.18;;;3.80;99.90;;;;;;4123794;28;20038;-68
2021/01/08 00:41:57;;;;;;;7.63;6.68;;;3.80;99.90;;;;;;4124790;28;20035;-68
2021/01/08 00:43:58;;;;;;;6.95;6.25;;;3.80;99.90;;;;;;4126208;28;20034;-68
2021/01/08 00:45:58;;;;;;;8.23;6.30;;;3.80;99.90;;;;;;4120407;28;20027;-68
2021/01/08 00:47:59;;;;;;;6.40;5.68;;;3.80;99.90;;;;;;4143113;28;20317;-68
2021/01/08 00:49:59;;;;;;;7.40;6.00;;;3.90;99.90;;;;;;4119503;28;20118;-68
2021/01/08 00:52:00;;;;;;;6.63;5.80;;;3.80;99.90;;;;;;4124477;28;20096;-68
2021/01/08 00:54:01;;;;;;;7.68;6.88;;;3.80;99.90;;;;;;4118780;28;20126;-68
2021/01/08 00:56:01;;;;;;;8.13;6.40;;;3.80;99.90;;;;;;4125273;28;20050;-68
2021/01/08 00:58:02;;;;;;;5.72;5.03;;;3.80;99.90;;;;;;4127366;28;20439;-68
2021/01/08 01:00:05;;;;;;;6.50;5.90;;;3.80;99.90;;;;;;4124665;28;20525;-68
2021/01/08 01:02:06;;;;;;;6.57;5.50;;;3.80;99.90;;;;;;4123191;28;20038;-68
2021/01/08 01:04:06;;;;;;;5.47;4.97;;;3.80;99.90;;;;;;4125453;28;20549;-68
2021/01/08 01:06:07;;;;;;;7.00;5.18;;;3.70;99.90;;;;;;4126259;28;20101;-68
2021/01/08 01:08:07;;;;;;;5.25;4.68;;;3.80;99.90;;;;;;4126760;28;20038;-68
2021/01/08 01:10:09;;;;;;;5.47;4.93;;;3.80;99.90;;;;;;4126131;28;20088;-68
2021/01/08 01:12:13;;;;;;;5.53;5.03;;;3.80;99.90;;;;;;4123724;28;20035;-68
2021/01/08 01:14:14;;;;;;;6.55;5.07;;;3.70;99.90;;;;;;4126137;28;20149;-68
2021/01/08 01:16:16;;;;;;;4.80;4.30;;;3.70;99.90;;;;;;4125620;28;20543;-68
2021/01/08 01:18:17;;;;;;;5.88;4.82;;;3.70;99.90;;;;;;4142937;28;20040;-68
2021/01/08 01:20:18;;;;;;;5.15;4.65;;;3.70;99.90;;;;;;4122500;28;20081;-68
2021/01/08 01:22:18;;;;;;;5.75;5.10;;;3.70;99.90;;;;;;4122977;28;20586;-68
2021/01/08 01:24:19;;;;;;;5.22;4.60;;;3.70;99.90;;;;;;4120155;28;20109;-68
2021/01/08 01:26:19;;;;;;;5.68;4.93;;;3.70;99.90;;;;;;4136114;28;20430;-68
2021/01/08 01:28:20;;;;;;;5.10;4.57;;;3.70;99.90;;;;;;4139080;28;20524;-68
2021/01/08 01:30:21;;;;;;;5.82;4.55;;;3.70;99.90;;;;;;4125945;28;20049;-68
2021/01/08 01:32:21;;;;;;;5.32;4.82;;;3.70;99.90;;;;;;4124097;28;20133;-68
2021/01/08 01:34:22;;;;;;;6.47;5.47;;;3.70;99.90;;;;;;4125256;28;20042;-68
2021/01/08 01:36:23;;;;;;;6.72;4.82;;;3.70;99.90;;;;;;4125908;28;20066;-68
2021/01/08 01:38:23;;;;;;;5.95;5.35;;;3.70;99.90;;;;;;4126041;28;20033;-68
2021/01/08 01:40:24;;;;;;;5.43;4.93;;;3.70;99.90;;;;;;4125664;28;20045;-68
2021/01/08 01:42:25;;;;;;;5.68;5.10;;;3.80;99.90;;;;;;4125232;28;20038;-68
2021/01/08 01:44:25;;;;;;;5.85;5.10;;;3.80;99.90;;;;;;4127726;28;20169;-68
2021/01/08 01:46:26;;;;;;;6.07;5.47;;;3.70;99.90;;;;;;4113589;28;20035;-68
2021/01/08 01:48:27;;;;;;;5.65;5.05;;;3.70;99.90;;;;;;4119706;28;20038;-68
2021/01/08 01:50:28;;;;;;;5.70;5.10;;;3.70;99.90;;;;;;4122300;28;20511;-68
2021/01/08 01:52:28;;;;;;;5.72;5.13;;;3.70;99.90;;;;;;4124032;28;20028;-68
2021/01/08 01:54:29;;;;;;;5.47;4.97;;;3.70;99.90;;;;;;4125691;28;20099;-68
2021/01/08 01:56:30;;;;;;;5.50;4.93;;;3.70;99.90;;;;;;4125976;28;20422;-68
2021/01/08 01:58:30;;;;;;;5.82;5.28;;;3.70;99.90;;;;;;4108668;28;20777;-68
2021/01/08 02:00:31;;;;;;;6.07;5.22;;;3.60;99.90;;;;;;4123730;28;20500;-68
2021/01/08 02:02:40;;;;;;;5.97;5.38;;;3.60;99.90;;;;;;4125999;28;20069;-68
2021/01/08 02:04:41;;;;;;;6.22;5.60;;;3.70;99.90;;;;;;4132007;28;20073;-68
2021/01/08 02:06:43;;;;;;;6.63;5.35;;;3.70;99.90;;;;;;4125299;28;20039;-68
2021/01/08 02:08:46;;;;;;;;;;;3.70;99.90;;;;;;4126125;28;20084;-68
2021/01/08 02:10:53;;;;;;;6.18;5.57;;;3.70;99.90;;;;;;4124738;28;19909;-68
2021/01/08 02:12:57;;;;;;;6.82;6.10;;;3.70;99.90;;;;;;4123312;28;20035;-68
2021/01/08 02:14:59;;;;;;;6.43;5.82;;;3.70;99.90;;;;;;4127893;28;20096;-68
2021/01/08 02:17:00;;;;;;;6.07;5.45;;;3.70;99.90;;;;;;4120553;28;20042;-68
2021/01/08 02:19:03;;;;;;;5.53;4.93;;;3.70;99.90;;;;;;4133106;28;20502;-68
2021/01/08 02:21:09;;;;;;;6.50;5.32;;;3.70;99.90;;;;;;4141464;28;20041;-68
2021/01/08 02:23:20;;;;;;;5.65;5.05;;;3.70;99.90;;;;;;4139389;28;20211;-68
2021/01/08 02:25:24;;;;;;;6.07;5.10;;;3.70;99.90;;;;;;4140760;28;20045;-68
2021/01/08 02:27:26;;;;;;;6.05;5.45;;;3.70;99.90;;;;;;4141804;28;20034;-68
2021/01/08 02:29:28;;;;;;;5.68;4.97;;;3.70;99.90;;;;;;4140522;28;20046;-68
2021/01/08 02:31:29;;;;;;;5.57;4.90;;;3.70;99.90;;;;;;4136190;28;20039;-68
2021/01/08 02:33:30;;;;;;;6.60;5.20;;;3.70;99.90;;;;;;4126742;28;20555;-68
2021/01/08 02:35:32;;;;;;;5.65;5.05;;;3.70;99.90;;;;;;4141190;28;20113;-68
2021/01/08 02:37:40;;;;;;;7.07;5.35;;;3.70;99.90;;;;;;4142123;28;20033;-68
2021/01/08 02:39:42;;;;;;;6.22;4.80;;;3.70;99.90;;;;;;4142692;28;20399;-68
2021/01/08 02:41:45;;;;;;;7.68;5.75;;;3.80;99.90;;;;;;4141594;28;20030;-68
2021/01/08 02:43:46;;;;;;;5.50;4.90;;;3.70;99.90;;;;;;4126520;28;20053;-68
2021/01/08 02:45:47;;;;;;;6.15;5.55;;;3.80;99.90;;;;;;4144688;28;20405;-68
2021/01/08 02:47:48;;;;;;;6.20;5.60;;;3.80;99.90;;;;;;4142796;28;20045;-68
2021/01/08 02:49:48;;;;;;;7.70;5.88;;;3.80;99.90;;;;;;4141441;28;20034;-68
2021/01/08 02:51:49;;;;;;;5.88;5.28;;;3.80;99.90;;;;;;4136401;28;20057;-68
2021/01/08 02:53:52;;;;;;;;;;;3.80;99.90;;;;;;4144517;28;20038;-68
2021/01/08 02:56:07;;;;;;;5.93;5.28;;;3.90;99.90;;;;;;4144259;28;20364;-68
2021/01/08 02:58:08;;;;;;;6.20;5.55;;;3.80;99.90;;;;;;4126375;28;20046;-68
2021/01/08 03:00:10;;;;;;;5.97;5.22;;;3.90;99.90;;;;;;4143390;28;20486;-68
2021/01/08 03:02:12;;;;;;;7.20;5.65;;;3.90;99.90;;;;;;4141107;28;20034;-68
2021/01/08 03:04:13;;;;;;;6.38;5.60;;;3.90;99.90;;;;;;4142959;28;20487;-68
2021/01/08 03:06:15;;;;;;;5.57;5.00;;;3.90;99.90;;;;;;4144043;28;20030;-68
2021/01/08 03:08:16;;;;;;;7.18;5.80;;;3.90;99.90;;;;;;4154357;28;20109;-68
2021/01/08 03:10:18;;;;;;;6.32;5.72;;;3.90;99.90;;;;;;4138197;28;20029;-68
2021/01/08 03:12:19;;;;;;;6.07;5.47;;;3.90;99.90;;;;;;4143103;28;20096;-68
2021/01/08 03:14:21;;;;;;;6.82;6.13;;;3.80;99.90;;;;;;4144118;28;20038;-68
2021/01/08 03:16:22;;;;;;;5.95;5.35;;;3.90;99.90;;;;;;4144565;28;20036;-68
2021/01/08 03:18:23;;;;;;;5.90;5.30;;;3.90;99.90;;;;;;4152793;28;20457;-68
2021/01/08 03:20:24;;;;;;;6.90;5.97;;;3.90;99.90;;;;;;4145443;28;20073;-68
2021/01/08 03:22:24;;;;;;;7.30;5.93;;;3.90;99.90;;;;;;4141589;28;20038;-68
2021/01/08 03:24:25;;;;;;;6.55;5.38;;;3.80;99.90;;;;;;4144107;28;20036;-68
2021/01/08 03:26:25;;;;;;;6.82;6.07;;;3.80;99.90;;;;;;4149272;28;20061;-68
2021/01/08 03:28:27;;;;;;;6.03;5.43;;;3.80;99.90;;;;;;4145615;28;20673;-68
2021/01/08 03:30:27;;;;;;;5.88;5.22;;;3.80;99.90;;;;;;4141555;28;21483;-68
2021/01/08 03:32:32;;;;;;;6.85;5.38;;;3.80;99.90;;;;;;4127800;28;20124;-68
2021/01/08 03:34:35;;;;;;;5.20;4.68;;;3.80;99.90;;;;;;4126011;28;20049;-68
2021/01/08 03:36:36;;;;;;;7.50;5.85;;;3.80;99.90;;;;;;4142222;28;20030;-68
2021/01/08 03:38:36;;;;;;;7.22;5.40;;;3.90;99.90;;;;;;4143024;28;20453;-68
2021/01/08 03:40:40;;;;;;;6.57;5.22;;;3.90;99.90;;;;;;4148718;28;20068;-68
2021/01/08 03:42:41;;;;;;;6.88;5.93;;;3.90;99.90;;;;;;4142438;28;20038;-68
2021/01/08 03:44:42;;;;;;;6.63;5.60;;;3.90;99.90;;;;;;4143685;28;20423;-68
2021/01/08 03:46:42;;;;;;;6.63;5.43;;;3.90;99.90;;;;;;4143999;28;20022;-68
2021/01/08 03:48:43;;;;;;;6.55;5.28;;;4.00;99.90;;;;;;4146004;28;20076;-68
2021/01/08 03:50:43;;;;;;;5.55;4.82;;;4.00;99.90;;;;;;4142875;28;20084;-68
2021/01/08 03:52:44;;;;;;;6.72;5.50;;;3.90;99.90;;;;;;4140412;28;20125;-68
2021/01/08 03:54:45;;;;;;;5.20;4.70;;;4.00;99.90;;;;;;4143104;28;20102;-68
2021/01/08 03:56:45;;;;;;;6.07;5.25;;;4.00;99.90;;;;;;4141814;28;20089;-68
2021/01/08 03:58:47;;;;;;;5.93;5.03;;;4.00;99.90;;;;;;4142691;28;20393;-68
2021/01/08 04:00:48;;;;;;;6.68;5.05;;;4.00;99.90;;;;;;4143619;28;20473;-68
2021/01/08 04:02:49;;;;;;;7.38;4.53;;;4.00;99.90;;;;;;4140783;28;20036;-70
2021/01/08 04:04:49;;;;;;;6.18;4.90;;;4.00;99.90;;;;;;4142771;28;20033;-71
2021/01/08 04:06:50;;;;;;;5.40;4.85;;;4.10;99.90;;;;;;4143882;28;20478;-68
2021/01/08 04:08:52;;;;;;;5.93;5.13;;;4.00;99.90;;;;;;4142741;28;20037;-68
2021/01/08 04:10:53;;;;;;;6.63;5.18;;;4.10;99.90;;;;;;4143302;28;20058;-68
2021/01/08 04:12:53;;;;;;;6.75;4.70;;;4.10;99.90;;;;;;4141731;28;20025;-68
2021/01/08 04:14:54;;;;;;;7.10;5.32;;;4.10;99.90;;;;;;4141081;28;20026;-68
2021/01/08 04:16:55;;;;;;;5.63;4.53;;;4.10;99.90;;;;;;4142880;28;20100;-68
2021/01/08 04:18:55;;;;;;;5.90;5.15;;;4.10;99.90;;;;;;4146058;28;20038;-68
2021/01/08 04:20:56;;;;;;;6.28;5.13;;;4.10;99.90;;;;;;4142268;28;20038;-68
2021/01/08 04:22:56;;;;;;;5.75;5.15;;;4.10;99.90;;;;;;4143720;28;20038;-68
2021/01/08 04:24:57;;;;;;;7.32;5.55;;;4.10;99.90;;;;;;4143293;28;20104;-68
2021/01/08 04:26:57;;;;;;;7.90;5.65;;;4.10;99.90;;;;;;4142628;28;20444;-68
2021/01/08 04:28:58;;;;;;;6.93;5.40;;;4.10;99.90;;;;;;4141512;28;20054;-68
2021/01/08 04:30:59;;;;;;;6.45;5.07;;;4.10;99.90;;;;;;4142806;28;20116;-68
2021/01/08 04:32:59;;;;;;;6.38;4.90;;;4.10;99.90;;;;;;4142105;28;20057;-68
2021/01/08 04:35:00;;;;;;;6.53;4.85;;;4.10;99.90;;;;;;4143213;28;20041;-68
2021/01/08 04:37:01;;;;;;;6.57;5.20;;;4.10;99.90;;;;;;4140614;28;20045;-68
2021/01/08 04:39:02;;;;;;;6.43;5.43;;;4.10;99.90;;;;;;4147527;28;20621;-68
2021/01/08 04:41:04;;;;;;;7.65;5.05;;;4.10;99.90;;;;;;4140845;28;20111;-68
2021/01/08 04:43:05;;;;;;;8.38;5.50;;;4.10;99.90;;;;;;4140512;28;20049;-68
2021/01/08 04:45:07;;;;;;;6.03;5.25;;;4.10;99.90;;;;;;4133104;28;20392;-68
2021/01/08 04:47:15;;;;;;;6.85;5.30;;;4.10;99.90;;;;;;4141527;28;20034;-68
2021/01/08 04:49:17;;;;;;;6.72;5.32;;;4.10;99.90;;;;;;4142533;28;20113;-68
2021/01/08 04:51:19;;;;;;;6.07;5.10;;;4.10;99.90;;;;;;4144979;28;20037;-68
2021/01/08 04:53:19;;;;;;;7.38;5.00;;;4.10;99.90;;;;;;4141321;28;20042;-68
2021/01/08 04:55:21;;;;;;;6.18;5.03;;;4.10;99.90;;;;;;4140774;28;20061;-68
2021/01/08 04:57:24;;;;;;;6.00;5.13;;;4.20;99.90;;;;;;4139716;28;20541;-68
2021/01/08 04:59:25;;;;;;;6.35;5.53;;;4.20;99.90;;;;;;4142266;28;20034;-68
2021/01/08 05:01:26;;;;;;;6.10;5.03;;;4.20;99.90;;;;;;4141721;28;20034;-68
2021/01/08 05:03:27;;;;;;;7.07;5.72;;;4.20;99.90;;;;;;4140326;28;20034;-68
2021/01/08 05:05:28;;;;;;;8.23;5.22;;;4.20;99.90;;;;;;4143008;28;20045;-68
2021/01/08 05:07:29;;;;;;;7.25;5.38;;;4.20;99.90;;;;;;4141643;28;20038;-68
2021/01/08 05:09:30;;;;;;;5.97;5.00;;;4.20;99.90;;;;;;4126787;28;20402;-68
2021/01/08 05:11:31;;;;;;;6.32;5.22;;;4.20;99.90;;;;;;4132005;28;20290;-68
2021/01/08 05:13:34;;;;;;;6.32;4.75;;;4.10;99.90;;;;;;4142643;28;20135;-68
2021/01/08 05:15:35;;;;;;;6.97;4.55;;;4.20;99.90;;;;;;4141981;28;20034;-68
2021/01/08 05:17:36;;;;;;;8.27;4.93;;;4.10;99.90;;;;;;4140896;28;20041;-68
2021/01/08 05:19:37;;;;;;;5.60;4.55;;;4.10;99.90;;;;;;4148834;28;20056;-68
2021/01/08 05:21:39;;;;;;;4.72;4.20;;;4.10;99.90;;;;;;4131672;28;20393;-68
2021/01/08 05:23:39;;;;;;;5.97;4.97;;;4.10;99.90;;;;;;4135029;28;20034;-68
2021/01/08 05:25:45;;;;;;;5.70;4.28;;;4.10;99.90;;;;;;4141007;28;20681;-68
2021/01/08 05:27:45;;;;;;;6.88;4.72;;;4.10;99.90;;;;;;4123812;28;20053;-68
2021/01/08 05:29:46;;;;;;;4.88;3.92;;;4.10;99.90;;;;;;4140852;28;20042;-68
2021/01/08 05:31:48;;;;;;;5.13;4.30;;;4.10;99.90;;;;;;4139875;28;20157;-69
2021/01/08 05:33:49;;;;;;;5.75;4.25;;;4.10;99.90;;;;;;4133722;28;20045;-68
2021/01/08 05:35:51;;;;;;;5.18;4.40;;;4.10;99.90;;;;;;4142613;28;20120;-68
2021/01/08 05:37:55;;;;;;;5.40;4.50;;;4.20;99.90;;;;;;4111523;28;20515;-68
2021/01/08 05:40:00;;;;;;;4.53;3.83;;;4.20;99.90;;;;;;4138423;28;20022;-68
2021/01/08 05:42:01;;;;;;;5.32;4.47;;;4.20;99.90;;;;;;4129739;28;20056;-68
2021/01/08 05:44:03;;;;;;;6.00;4.53;;;4.10;99.90;;;;;;4140815;28;22765;-68
2021/01/08 05:46:11;;;;;;;6.80;5.18;;;4.10;99.90;;;;;;4134035;28;20041;-68
2021/01/08 05:48:13;;;;;;;4.97;4.25;;;4.10;99.90;;;;;;4135671;28;20040;-68
2021/01/08 05:50:15;;;;;;;5.10;4.10;;;4.10;99.90;;;;;;4143983;28;20045;-68
2021/01/08 05:52:16;;;;;;;4.53;3.60;;;4.10;99.90;;;;;;4140832;28;20041;-68
2021/01/08 05:54:18;;;;;;;4.22;3.78;;;4.10;99.90;;;;;;4141304;28;20453;-68
2021/01/08 05:56:22;;;;;;;5.40;4.20;;;4.20;99.90;;;;;;4140293;28;20433;-68
2021/01/08 05:58:24;;;;;;;5.28;3.92;;;4.20;99.90;;;;;;4139707;28;20117;-68
2021/01/08 06:00:25;;;;;;;4.60;3.92;;;4.20;99.90;;;;;;4137897;28;20507;-68
2021/01/08 06:02:26;;;;;;;5.13;4.10;;;4.20;99.90;;;;;;4137605;28;20073;-68
2021/01/08 06:04:30;;;;;;;5.47;4.57;;;4.20;99.90;;;;;;4140303;28;20132;-68
2021/01/08 06:06:43;;;;;;;8.25;4.57;;;4.20;99.90;;;;;;4134497;28;24797;-68
2021/01/08 06:08:54;;;;;;;5.05;4.30;;;4.20;99.90;;;;;;4123085;28;20121;-68
2021/01/08 06:10:57;;;;;;;6.03;4.90;;;4.20;99.90;;;;;;4124523;28;20723;-68
2021/01/08 06:12:58;;;;;;;4.70;3.92;;;4.20;99.90;;;;;;4146147;28;20486;-68
2021/01/08 06:15:00;;;;;;;5.55;4.22;;;4.20;99.90;;;;;;4150705;28;20034;-68
2021/01/08 06:17:01;;;;;;;5.20;4.05;;;4.20;99.90;;;;;;4145086;28;20042;-68
2021/01/08 06:19:03;;;;;;;4.43;3.90;;;4.20;99.90;;;;;;4146547;28;20385;-68
2021/01/08 06:21:09;;;;;;;5.88;4.40;;;4.30;99.90;;;;;;4142924;28;20244;-68
2021/01/08 06:23:10;;;;;;;5.40;4.28;;;4.30;99.90;;;;;;4132986;28;20103;-68
2021/01/08 06:25:11;;;;;;;6.13;4.15;;;4.30;99.90;;;;;;4145160;28;20117;-68
2021/01/08 06:27:16;;;;;;;5.43;3.90;;;4.30;99.90;;;;;;4138955;28;20165;-68
2021/01/08 06:29:19;;;;;;;6.53;4.82;;;4.30;99.90;;;;;;4148468;28;20034;-68
2021/01/08 06:31:26;;;;;;;5.47;4.47;;;4.30;99.90;;;;;;4148127;28;20457;-69
2021/01/08 06:33:34;;;;;;;6.10;4.75;;;4.30;99.90;;;;;;4144159;28;20089;-68
2021/01/08 06:35:38;;;;;;;7.63;5.05;;;4.30;99.90;;;;;;4138718;28;20037;-68
2021/01/08 06:37:41;;;;;;;6.05;4.45;;;4.30;99.90;;;;;;4144055;28;20044;-68
2021/01/08 06:39:44;;;;;;;6.55;5.07;;;4.30;99.90;;;;;;4122577;28;20034;-68
2021/01/08 06:41:55;;;;;;;5.78;4.28;;;4.30;99.90;;;;;;4128409;28;20438;-68
2021/01/08 06:44:04;;;;;;;5.35;4.38;;;4.30;99.90;;;;;;4143251;28;20040;-69
2021/01/08 06:46:10;;;;;;;5.07;3.92;;;4.30;99.90;;;;;;4126207;28;20026;-68
2021/01/08 06:48:11;;;;;;;5.22;4.28;;;4.20;99.90;;;;;;4148473;28;20440;-68
2021/01/08 06:50:15;;;;;;;6.18;4.57;;;4.30;99.90;;;;;;4143226;28;20061;-68
2021/01/08 06:52:16;;;;;;;5.95;4.65;;;4.20;99.90;;;;;;4141748;28;20044;-69
2021/01/08 06:54:17;;;;;;;5.63;4.53;;;4.20;99.90;;;;;;4147472;28;20045;-68
2021/01/08 06:56:30;;;;;;;6.20;4.78;;;4.20;99.90;;;;;;4144922;28;20128;-68
2021/01/08 06:58:40;;;;;;;5.72;4.53;;;4.20;99.90;;;;;;4151229;28;20056;-68
2021/01/08 07:00:41;;;;;;;5.82;4.65;;;4.20;99.90;;;;;;4143368;28;20073;-69
2021/01/08 07:02:43;;;;;;;5.53;4.15;;;4.20;99.90;;;;;;4138178;28;20026;-68
2021/01/08 07:04:44;;;;;;;5.97;4.38;;;4.20;99.90;;;;;;4125189;28;20038;-68
2021/01/08 07:06:45;;;;;;;4.18;3.60;;;4.20;99.90;;;;;;4145431;28;20045;-69
2021/01/08 07:08:45;;;;;;;5.90;4.32;;;4.20;99.90;;;;;;4129251;28;20442;-68
2021/01/08 07:10:53;;;;;;;5.80;4.22;;;4.20;99.90;;;;;;4148475;28;20314;-68
2021/01/08 07:12:55;;;;;;;7.80;4.22;;;4.20;99.90;;;;;;4148793;28;20077;-68
2021/01/08 07:14:58;;;;;;;5.60;4.43;;;4.20;99.90;;;;;;4143398;28;20034;-68
2021/01/08 07:16:59;;;;;;;5.68;3.88;;;4.20;99.90;;;;;;4142368;28;20042;-68
2021/01/08 07:19:04;;;;;;;4.20;3.45;;;4.20;99.90;;;;;;4146727;28;20502;-69
2021/01/08 07:21:05;;;;;;;4.82;3.90;;;4.20;99.90;;;;;;4139640;28;20494;-69
2021/01/08 07:23:05;;;;;;;4.47;3.72;;;4.20;99.90;;;;;;4131235;28;20038;-68
2021/01/08 07:25:16;;;;;;;5.10;4.13;;;4.20;99.90;;;;;;4141009;28;20049;-68
2021/01/08 07:27:18;;;;;;;6.43;4.20;;;4.20;99.90;;;;;;4145270;28;20060;-68
2021/01/08 07:29:29;;;;;;;4.70;3.95;;;4.20;99.90;;;;;;4144184;28;20030;-68
2021/01/08 07:31:31;;;;;;;6.05;4.53;;;4.20;99.90;;;;;;4143576;28;20034;-69
2021/01/08 07:33:32;;;;;;;5.05;3.92;;;4.20;99.90;;;;;;4140950;28;20042;-68
2021/01/08 07:35:33;;;;;;;5.60;4.22;;;4.20;99.90;;;;;;4142035;28;20042;-68
2021/01/08 07:37:54;;;;;;;5.38;4.30;;;4.20;99.90;;;;;;4141610;28;20520;-68
2021/01/08 07:40:03;;;;;;;6.78;4.15;;;4.20;99.90;;;;;;4140712;28;20034;-68
2021/01/08 07:42:35;;;;;;;6.55;4.45;;;4.20;99.90;;;;;;4139093;28;20494;-68
2021/01/08 07:44:36;;;;;;;5.80;4.38;;;4.20;99.90;;;;;;4148662;28;20091;-68
2021/01/08 07:46:36;;;;;;;6.35;4.22;;;4.20;99.90;;;;;;4142698;28;20034;-68
2021/01/08 07:48:41;;;;;;;5.47;4.35;;;4.20;99.90;;;;;;4147779;28;20580;-68
2021/01/08 07:50:58;;;;;;;5.30;4.25;;;4.20;99.90;;;;;;4142883;28;20379;-68
2021/01/08 07:52:59;;;;;;;5.60;3.83;;;4.20;99.90;;;;;;4137275;28;20060;-67
2021/01/08 07:54:59;;;;;;;5.05;3.72;;;4.20;99.90;;;;;;4140240;28;20125;-68
2021/01/08 07:57:07;;;;;;;6.15;3.95;;;4.20;99.90;;;;;;4137766;28;20518;-69
2021/01/08 07:59:07;;;;;;;4.60;3.53;;;4.20;99.90;;;;;;4147373;28;20065;-69
2021/01/08 08:01:10;;;;;;;4.70;3.60;;;4.20;99.90;;;;;;4128061;28;20767;-69
2021/01/08 08:03:12;;;;;;;5.63;3.45;;;4.20;99.90;;;;;;4147484;28;20490;-69
2021/01/08 08:05:15;;;;;;;4.77;3.37;;;4.20;99.90;;;;;;4140942;28;20063;-69
2021/01/08 08:07:16;;;;;;;;;;;4.20;99.90;;;;;;4145278;28;20414;-69
2021/01/08 08:09:17;;;;;;;4.68;3.30;;;4.20;99.90;;;;;;4142938;28;19921;-69
2021/01/08 08:11:22;;;;;;;4.90;3.88;;;4.30;99.90;;;;;;4142031;28;20022;-69
2021/01/08 08:13:29;;;;;;;4.45;3.33;;;4.30;99.90;;;;;;4150724;28;20034;-69
2021/01/08 08:15:30;;;;;;;5.20;3.78;;;4.30;99.90;;;;;;4140301;28;20050;-69
2021/01/08 08:17:31;;;;;;;4.43;3.67;;;4.30;99.90;;;;;;4144192;28;20068;-69
2021/01/08 08:19:33;;;;;;;4.10;3.03;;;4.30;99.90;;;;;;4141843;28;20052;-69
2021/01/08 08:21:35;;;;;;;4.57;3.50;;;4.30;99.90;;;;;;4142129;28;20033;-69
2021/01/08 08:23:36;;;;;;;5.35;4.40;;;4.30;99.90;;;;;;4151006;28;20068;-69
2021/01/08 08:25:37;;;;;;;4.78;3.67;;;4.40;99.90;;;;;;4147499;28;20056;-69
2021/01/08 08:27:38;;;;;;;4.68;3.85;;;4.40;99.90;;;;;;4142663;28;20126;-69
2021/01/08 08:29:38;;;;;;;4.55;3.65;;;4.40;99.90;;;;;;4142174;28;20034;-69
2021/01/08 08:31:49;;;;;;;5.05;3.80;;;4.40;99.90;;;;;;4141108;28;20379;-69
2021/01/08 08:33:50;;;;;;;5.07;4.10;;;4.40;99.90;;;;;;4127854;28;20068;-69
2021/01/08 08:35:51;;;;;;;6.68;4.50;;;4.40;99.90;;;;;;4141346;28;20064;-69
2021/01/08 08:37:54;;;;;;;6.40;4.63;;;4.40;99.90;;;;;;4140060;28;20030;-69
2021/01/08 08:40:00;;;;;;;6.30;4.38;;;4.40;99.90;;;;;;4124322;28;20113;-69
2021/01/08 08:42:00;;;;;;;5.72;4.03;;;4.50;99.90;;;;;;4141656;28;20593;-69
2021/01/08 08:44:05;;;;;;;5.22;4.22;;;4.50;99.90;;;;;;4124211;28;20034;-69
2021/01/08 08:46:06;;;;;;;9.05;3.95;;;4.50;99.90;;;;;;4146475;28;20050;-69
2021/01/08 08:48:07;;;;;;;6.85;4.63;;;4.50;99.90;;;;;;4140329;28;20038;-69
2021/01/08 08:50:08;;;;;;;5.70;4.38;;;4.50;99.90;;;;;;4141774;28;20486;-69
2021/01/08 08:52:08;;;;;;;5.13;4.40;;;4.50;99.90;;;;;;4143365;28;20040;-69
2021/01/08 08:54:10;;;;;;;5.80;4.68;;;4.50;99.90;;;;;;4143855;28;20041;-69
2021/01/08 08:56:11;;;;;;;5.53;4.03;;;4.50;99.90;;;;;;4146381;28;20041;-69
2021/01/08 08:58:14;;;;;;;5.22;4.45;;;4.60;99.90;;;;;;4144768;28;20037;-70
2021/01/08 09:00:20;;;;;;;;;;;4.50;99.90;;;;;;4145596;28;20114;-69
2021/01/08 09:02:25;;;;;;;5.72;3.90;;;4.50;99.90;;;;;;4148451;28;19924;-69
2021/01/08 09:04:25;;;;;;;4.30;3.88;;;4.60;99.90;;;;;;4147858;28;20030;-69
2021/01/08 09:06:27;;;;;;;5.43;4.47;;;4.60;99.90;;;;;;4150456;28;20116;-69
2021/01/08 09:08:33;;;;;;;5.70;4.05;;;4.60;99.90;;;;;;4146945;28;20495;-69
2021/01/08 09:10:36;;;;;;;5.60;4.38;;;4.60;99.90;;;;;;4144617;28;20038;-69
2021/01/08 09:12:59;;;;;;;6.18;3.97;;;4.60;99.90;;;;;;4147610;28;20048;-69
2021/01/08 09:15:10;;;;;;;5.20;4.03;;;4.60;99.90;;;;;;4147558;28;20375;-73
2021/01/08 09:17:19;;;;;;;6.38;4.70;;;4.60;99.90;;;;;;4141633;28;20029;-72
2021/01/08 09:19:27;;;;;;;6.10;4.82;;;4.60;99.90;;;;;;4140969;28;20526;-74
2021/01/08 09:21:32;;;;;;;5.63;4.45;;;4.70;99.90;;;;;;4147972;28;20038;-74
2021/01/08 09:23:35;;;;;;;5.65;4.55;;;4.70;99.90;;;;;;4143016;28;20037;-73
2021/01/08 09:25:38;;;;;;;4.82;3.95;;;4.70;99.90;;;;;;4141275;28;20030;-73
2021/01/08 09:27:42;;;;;;;5.25;4.32;;;4.70;99.90;;;;;;4140980;28;20041;-69
2021/01/08 09:29:43;;;;;;;5.43;4.20;;;4.70;99.90;;;;;;4141426;28;20034;-70
2021/01/08 09:31:45;;;;;;;7.05;4.82;;;4.70;99.90;;;;;;4125366;28;20038;-70
2021/01/08 09:34:00;;;;;;;7.00;5.18;;;4.70;99.90;;;;;;4140287;28;20293;-69
2021/01/08 09:36:05;;;;;;;5.68;3.92;;;4.70;99.90;;;;;;4142555;28;20046;-70
2021/01/08 09:38:09;;;;;;;4.82;4.07;;;4.70;99.90;;;;;;4139572;28;20419;-69
2021/01/08 09:40:11;;;;;;;5.93;4.20;;;4.70;99.90;;;;;;4137650;28;20041;-70
2021/01/08 09:42:12;;;;;;;5.53;4.45;;;4.70;99.90;;;;;;4143605;28;20041;-70
2021/01/08 09:44:14;;;;;;;7.07;4.88;;;4.70;99.90;;;;;;4139081;28;20585;-70
2021/01/08 09:46:15;;;;;;;6.00;4.80;;;4.70;99.90;;;;;;4134965;28;20042;-70
2021/01/08 09:48:22;;;;;;;7.03;4.30;;;4.70;99.90;;;;;;4140768;28;20478;-70
2021/01/08 09:50:29;;;;;;;5.40;4.47;;;4.70;99.90;;;;;;4141510;28;20041;-70
2021/01/08 09:52:31;;;;;;;5.22;4.55;;;4.70;99.90;;;;;;4138319;28;20034;-70
2021/01/08 09:54:41;;;;;;;6.43;5.18;;;4.70;99.90;;;;;;4144356;28;20397;-70
2021/01/08 09:56:52;;;;;;;6.28;4.68;;;4.70;99.90;;;;;;4137224;28;20033;-70
2021/01/08 09:59:13;;;;;;;11.35;5.22;;;4.70;99.90;;;;;;4146605;28;20109;-70
2021/01/08 10:01:14;;;;;;;5.20;4.40;;;4.80;99.90;;;;;;4138650;28;20117;-70
2021/01/08 10:03:19;;;;;;;7.07;4.38;;;4.80;99.90;;;;;;4141246;28;20513;-70
2021/01/08 10:05:20;;;;;;;6.70;4.35;;;4.80;99.90;;;;;;4142065;28;20061;-70
2021/01/08 10:07:20;;;;;;;5.53;4.20;;;4.70;99.90;;;;;;4142684;28;20045;-70
2021/01/08 10:09:21;;;;;;;5.38;4.22;;;4.80;99.90;;;;;;4144431;28;20046;-70
2021/01/08 10:11:26;;;;;;;6.75;4.22;;;4.70;99.90;;;;;;4143278;28;20626;-70
2021/01/08 10:13:27;;;;;;;6.22;4.43;;;4.80;99.90;;;;;;4146876;28;20433;-70
2021/01/08 10:15:36;;;;;;;5.22;4.22;;;4.80;99.90;;;;;;4145504;28;20029;-70
2021/01/08 10:17:44;;;;;;;5.50;4.30;;;4.80;99.90;;;;;;4142226;28;20306;-70
2021/01/08 10:19:46;;;;;;;5.90;4.45;;;4.80;99.90;;;;;;4147729;28;20030;-70
2021/01/08 10:21:47;;;;;;;6.18;4.55;;;4.80;99.90;;;;;;4140808;28;20520;-70
2021/01/08 10:23:48;;;;;;;5.78;4.60;;;4.70;99.90;;;;;;4139122;28;20034;-70
2021/01/08 10:25:53;;;;;;;7.25;5.20;;;4.70;99.90;;;;;;4142560;28;20467;-70
2021/01/08 10:28:07;;;;;;;4.63;3.83;;;4.70;99.90;;;;;;4147453;28;20026;-70
2021/01/08 10:30:09;;;;;;;5.07;4.00;;;4.70;99.90;;;;;;4145440;28;20064;-70
2021/01/08 10:32:13;;;;;;;5.70;4.40;;;4.70;99.90;;;;;;4140328;28;20065;-70
2021/01/08 10:34:14;;;;;;;4.88;3.83;;;4.70;99.90;;;;;;4138937;28;20045;-70
2021/01/08 10:36:15;;;;;;;5.30;3.92;;;4.60;99.90;;;;;;4133960;28;20026;-70
2021/01/08 10:38:15;;;;;;;4.80;3.42;;;4.70;99.90;;;;;;4147137;28;20113;-70
2021/01/08 10:40:16;;;;;;;5.45;3.35;;;4.70;99.90;;;;;;4143958;28;20040;-70
2021/01/08 10:42:16;;;;;;;5.50;3.92;;;4.70;99.90;;;;;;4139814;28;20041;-70
2021/01/08 10:44:17;;;;;;;5.25;3.88;;;4.70;99.90;;;;;;4141183;28;20045;-70
2021/01/08 10:46:21;;;;;;;5.35;3.70;;;4.70;99.90;;;;;;4138903;28;20042;-70
2021/01/08 10:48:21;;;;;;;4.90;3.75;;;4.80;99.90;;;;;;4141280;28;20170;-70